• Join FlightAware (Why Join?)
  • Login
  • US Flag 
08:51AM EDT


 

Airport Tracker/Info


-or-


 

Live Flight TrackerFlight Track Log ✈ EJA396 ✈ 28-Apr-2013 ✈ KLGA - KMIA

Flight Track Log - Related Links

Times and Time Zones

All times are in EDT time to prevent confusion due to time zone crossing. See the EJA396 flight status page for this flight to view local times or setup timezone preferences in your user account.

Time Position Orientation Groundspeed Altitude Reporting Facility
EDT Latitude Longitude Course Direction KTS MPH feet Rate Location/Type
06:34PM 40.7333 -73.8500 90° East 190 219 2,200  Level New York TRACON
06:35PM 40.7333 -73.7833 90° East 250 288 5,200 3,060 Climbing New York TRACON
06:36PM 40.7833 -73.8333 323° Northwest 281 323 8,400 3,120 Climbing New York TRACON
06:37PM 40.7500 -73.9167 242° Southwest 286 329 11,800 1,680 Climbing New York TRACON
06:38PM 40.6667 -73.9833 211° Southwest 347 399 12,000 1,800 Climbing New York TRACON
06:40PM 40.5078 -74.0494 198° South 362 417 16,800 2,520 Climbing New York Center
06:41PM 40.4108 -74.0883 197° South 362 417 19,000 2,100 Climbing New York Center
06:43PM 40.2183 -74.2439 212° Southwest 368 423 24,000 1,500 Climbing Washington Center
06:44PM 40.1278 -74.3325 217° Southwest 398 458 24,000  Level Washington Center
06:45PM 40.0389 -74.4153 215° Southwest 405 466 24,000 300 Level Washington Center
06:46PM 39.9481 -74.5008 216° Southwest 405 466 24,700 1,080 Climbing Washington Center
06:47PM 39.8614 -74.5861 217° Southwest 405 466 26,200 1,440 Climbing Washington Center
06:48PM 39.7725 -74.6708 216° Southwest 405 466 27,700 1,080 Climbing Washington Center
06:49PM 39.6836 -74.7556 216° Southwest 405 466 28,400 960 Climbing Washington Center
06:50PM 39.5903 -74.8403 215° Southwest 405 466 29,700 1,380 Climbing Washington Center
06:51PM 39.5053 -74.9219 217° Southwest 405 466 31,200 1,740 Climbing Washington Center
06:52PM 39.4142 -75.0058 215° Southwest 405 466 33,300 2,040 Climbing Washington Center
06:53PM 39.3311 -75.0844 216° Southwest 400 460 35,400 2,040 Climbing Washington Center
06:54PM 39.2292 -75.1494 206° Southwest 392 451 37,500 1,860 Climbing Washington Center
06:55PM 39.1378 -75.2008 204° Southwest 368 423 39,200 1,260 Climbing Washington Center
06:56PM 39.0419 -75.2494 202° Southwest 363 418 40,000 360 Climbing Washington Center
06:57PM 38.9442 -75.3061 204° Southwest 368 423 40,000  Level Washington Center
06:58PM 38.8358 -75.3572 200° South 400 460 40,000  Level Washington Center
06:59PM 38.7233 -75.4133 201° Southwest 422 486 40,000  Level Washington Center
07:00PM 38.6108 -75.4642 199° South 429 494 40,000  Level Washington Center
07:01PM 38.4983 -75.5122 198° South 434 499 40,000  Level Washington Center
07:02PM 38.3836 -75.5600 198° South 434 499 40,000  Level Washington Center
07:03PM 38.2692 -75.6128 200° South 434 499 40,000  Level Washington Center
07:04PM 38.1544 -75.6631 199° South 434 499 40,000  Level Washington Center
07:05PM 38.0647 -75.7025 199° South 434 499 40,000  Level Washington Center
07:06PM 37.9331 -75.7708 202° Southwest 428 493 40,000  Level Washington Center
07:07PM 37.8183 -75.8178 198° South 428 493 40,000  Level Washington Center
07:08PM 37.7036 -75.8700 200° South 434 499 40,000  Level Washington Center
07:09PM 37.5867 -75.9194 199° South 434 499 40,000  Level Washington Center
07:10PM 37.4719 -75.9686 199° South 439 505 40,000  Level Washington Center
07:11PM 37.3569 -76.0203 200° South 439 505 40,000  Level Washington Center
07:12PM 37.2419 -76.0667 198° South 439 505 40,000  Level Washington Center
07:13PM 37.1269 -76.1181 200° South 439 505 40,000  Level Washington Center
07:14PM 37.0081 -76.1642 197° South 444 511 40,000  Level Washington Center
07:15PM 36.8931 -76.2153 200° South 449 517 40,000  Level Washington Center
07:16PM 36.7781 -76.2636 199° South 443 510 40,000  Level Washington Center
07:17PM 36.6733 -76.3144 201° Southwest 443 510 40,000  Level Washington Center
07:18PM 36.5542 -76.3625 198° South 443 510 40,000  Level Washington Center
07:19PM 36.4411 -76.4078 198° South 443 510 40,000  Level Washington Center
07:20PM 36.3281 -76.4556 199° South 443 510 40,000  Level Washington Center
07:21PM 36.2111 -76.5058 199° South 443 510 40,000  Level Washington Center
07:22PM 36.0958 -76.5533 198° South 443 510 40,000  Level Washington Center
07:23PM 35.9808 -76.6008 198° South 443 510 40,000  Level Washington Center
07:24PM 35.8656 -76.6481 198° South 443 510 40,000  Level Washington Center
07:25PM 35.7503 -76.6950 198° South 443 510 40,000  Level Washington Center
07:26PM 35.6353 -76.7447 199° South 443 510 40,000  Level Washington Center
07:27PM 35.5178 -76.7914 198° South 443 510 40,000  Level Washington Center
07:28PM 35.4047 -76.8381 199° South 443 510 40,000  Level Washington Center
07:29PM 35.2853 -76.8897 199° South 443 510 40,000  Level Washington Center
07:30PM 35.1700 -76.9361 198° South 443 510 40,000  Level Washington Center
07:31PM 35.0547 -76.9875 200° South 443 510 40,000  Level Washington Center
07:32PM 34.9372 -77.0361 199° South 443 510 40,000  Level Washington Center
07:33PM 34.8178 -77.0797 197° South 443 510 40,000  Level Washington Center
07:34PM 34.7003 -77.1306 200° South 448 516 40,000  Level Washington Center
07:35PM 34.5828 -77.1789 199° South 448 516 40,000  Level Washington Center
07:36PM 34.4653 -77.2244 198° South 448 516 40,000  Level Washington Center
07:37PM 34.3436 -77.2722 198° South 448 516 40,000  Level Washington Center
07:38PM 34.2283 -77.3175 198° South 448 516 40,000  Level Washington Center
07:39PM 34.1086 -77.3653 198° South 448 516 40,000  Level Washington Center
07:41PM 33.8861 -77.4517 198° South 461 531 40,000  Level Jacksonville Center
07:42PM 33.7672 -77.5017 199° South 461 531 40,000  Level Jacksonville Center
07:43PM 33.6481 -77.5464 197° South 456 525 40,000  Level Jacksonville Center
07:44PM 33.5289 -77.5933 198° South 456 525 40,000  Level Jacksonville Center
07:45PM 33.4142 -77.6400 199° South 456 525 40,000  Level Jacksonville Center
07:46PM 33.2950 -77.6842 197° South 456 525 40,000  Level Jacksonville Center
07:47PM 33.1778 -77.7308 198° South 456 525 40,000  Level Jacksonville Center
07:48PM 33.0608 -77.7747 197° South 456 525 40,000  Level Jacksonville Center
07:49PM 32.9414 -77.8186 197° South 456 525 40,000  Level Jacksonville Center
07:50PM 32.8244 -77.8672 199° South 456 525 40,000  Level Jacksonville Center
07:51PM 32.7075 -77.9158 199° South 456 525 40,000  Level Jacksonville Center
07:52PM 32.5900 -77.9567 196° South 451 519 40,000  Level Jacksonville Center
07:53PM 32.4747 -77.9975 197° South 451 519 40,000  Level Jacksonville Center
07:54PM 32.3575 -78.0431 198° South 451 519 40,000  Level Jacksonville Center
07:55PM 32.2403 -78.0886 198° South 451 519 40,000  Level Jacksonville Center
07:56PM 32.1250 -78.1339 198° South 451 519 40,000  Level Jacksonville Center
07:57PM 32.0075 -78.1719 195° South 446 513 40,000  Level Jacksonville Center
07:58PM 31.8925 -78.2217 200° South 441 507 40,000  Level Jacksonville Center
07:59PM 31.7753 -78.2717 200° South 441 507 40,000  Level Jacksonville Center
08:00PM 31.6581 -78.3167 198° South 441 507 40,000  Level Jacksonville Center
08:01PM 31.5447 -78.3611 198° South 441 507 40,000  Level Jacksonville Center
08:02PM 31.4294 -78.4033 197° South 441 507 40,000  Level Jacksonville Center
08:03PM 31.3139 -78.4453 197° South 435 501 40,000  Level Jacksonville Center
08:04PM 31.1964 -78.4872 197° South 435 501 40,000  Level Jacksonville Center
08:05PM 31.0814 -78.5364 200° South 440 506 40,000  Level Jacksonville Center
08:06PM 30.9656 -78.5731 195° South 435 501 40,000  Level Jacksonville Center
08:07PM 30.8503 -78.6169 198° South 443 510 40,000  Level Jacksonville Center
08:08PM 30.7347 -78.6608 198° South 443 510 40,000  Level Jacksonville Center
08:09PM 30.5392 -78.7122 193° South 439 505 40,000  Level Miami Center
08:10PM 30.4161 -78.7339 189° South 444 511 40,000  Level Miami Center
08:11PM 30.2928 -78.7558 189° South 453 521 40,000  Level Miami Center
08:12PM 30.1736 -78.7825 191° South 453 521 40,000  Level Miami Center
08:13PM 30.0461 -78.8089 190° South 447 514 40,000  Level Miami Center
08:14PM 29.9183 -78.8425 193° South 442 509 40,000  Level Miami Center
08:15PM 29.7969 -78.8714 192° South 447 514 40,000  Level Miami Center
08:16PM 29.6717 -78.8931 189° South 456 525 40,000  Level Miami Center
08:17PM 29.5461 -78.9169 189° South 456 525 40,000 -600 Level Miami Center
08:18PM 29.4269 -78.9433 191° South 456 525 38,900 -1,260 Descending Miami Center
08:19PM 29.3014 -78.9694 190° South 449 517 37,500 -1,320 Descending Miami Center
08:20PM 29.1947 -78.9911 190° South 449 517 36,300 -780 Descending Miami Center
08:21PM 29.0753 -79.0172 191° South 444 511 36,000 -180 Descending Miami Center
08:22PM 28.9478 -79.0408 189° South 453 521 36,000  Level Miami Center
08:23PM 28.8222 -79.0669 190° South 459 528 36,000  Level Miami Center
08:24PM 28.6944 -79.0928 190° South 464 534 36,000  Level Miami Center
08:25PM 28.5689 -79.1186 190° South 469 540 36,000  Level Miami Center
08:26PM 28.4411 -79.1444 190° South 469 540 36,000  Level Miami Center
08:27PM 28.3133 -79.1700 190° South 474 545 36,000  Level Miami Center
08:28PM 28.1836 -79.1933 189° South 468 539 36,000  Level Miami Center
08:29PM 28.0558 -79.2211 191° South 463 533 36,000 -480 Level Miami Center
08:30PM 27.9322 -79.2444 189° South 468 539 35,100 -1,260 Descending Miami Center
08:31PM 27.7939 -79.2722 190° South 463 533 33,500 -1,560 Descending Miami Center
08:32PM 27.6683 -79.2978 190° South 463 533 32,000 -1,500 Descending Miami Center
08:33PM 27.5531 -79.3186 189° South 465 535 30,600 -1,740 Descending Miami Center
08:34PM 27.4064 -79.3506 191° South 480 552 28,600 -2,220 Descending Miami Center
08:35PM 27.2806 -79.3736 189° South 474 545 26,200 -2,280 Descending Miami Center
08:36PM 27.1611 -79.3967 190° South 447 514 24,100 -1,140 Descending Miami Center
08:37PM 27.0606 -79.4247 194° South 424 488 24,000 -60 Descending Miami Center
08:38PM 26.9492 -79.4597 196° South 419 482 24,000 -180 Level Miami Center
08:39PM 26.8253 -79.4989 196° South 424 488 23,700 -1,200 Descending Miami Center
08:40PM 26.7139 -79.5311 194° South 416 479 21,700 -2,040 Descending Miami Center
08:41PM 26.6192 -79.5731 202° Southwest 386 444 19,800 -2,040 Descending Miami Center
08:42PM 26.5281 -79.6408 214° Southwest 384 442 17,700 -1,920 Descending Miami Center
08:43PM 26.4958 -79.6794 227° Southwest 358 412 16,900 -1,440 Descending Miami Center
08:43PM 26.4808 -79.7069 239° Southwest 364 419 16,300 -900 Descending Miami Center
08:44PM 26.4419 -79.7733 237° Southwest 353 406 16,000 -720 Descending Miami Center
08:44PM 26.4158 -79.8167 236° Southwest 355 409 15,600 -1,140 Descending Miami Center
08:45PM 26.3922 -79.8603 239° Southwest 333 383 14,900 -1,440 Descending Miami Center
08:45PM 26.3664 -79.8919 228° Southwest 349 402 14,200 -1,560 Descending Miami Center
08:46PM 26.3342 -79.9306 227° Southwest 337 388 13,500 -1,500 Descending Miami Center
08:46PM 26.3000 -79.9644 222° Southwest 344 396 12,700 -1,920 Descending Miami Center
08:47PM 26.2639 -79.9983 220° Southwest 319 367 11,600 -2,100 Descending Miami Center
08:47PM 26.2300 -80.0181 208° Southwest 332 382 10,600 -1,620 Descending Miami Center
08:48PM 26.1858 -80.0356 200° South 301 346 10,000 -600 Descending Miami Center
08:48PM 26.1500 -80.0439 192° South 311 358 10,000  Level Miami Center
08:49PM 26.1100 -80.0567 196° South 301 346 10,000  Level Miami Center
08:49PM 26.0661 -80.0669 192° South 311 358 10,000  Level Miami Center
08:50PM 26.0156 -80.0842 197° South 326 375 10,000  Level Miami Center
08:50PM 25.9800 -80.0903 189° South 316 364 10,000  Level Miami Center
08:51PM 25.9478 -80.1239 223° Southwest 331 381 10,000  Level Miami Center
08:52PM 25.9061 -80.2106 242° Southwest 318 366 10,000 -1,020 Level Miami Center
08:53PM 25.8811 -80.3022 253° West 277 319 7,900 -1,980 Descending Miami Center
08:54PM 25.8769 -80.3897 267° West 267 307 5,900 -2,040 Descending Miami Center
08:55PM 25.8608 -80.4539 254° West 226 260 4,000 -1,920 Descending Miami Center
08:56PM 25.8194 -80.4344 157° South 170 196 2,400 -1,200 Descending Miami Center
08:57PM 25.8058 -80.3878 108° East 140 161 1,600 -720 Descending Miami Center
08:58PM 25.8006 -80.3506 99° East 107 123 900 -660 Descending Miami Center
08:59PM 25.8011 -80.3208 89° East 103 119 400 -600 Descending Miami Center
09:01PM 25.7954 -80.2901 103° East  Level Estimated